sensor_id;sensor_type;location;lat;lon;timestamp;P1;durP1;ratioP1;P2;durP2;ratioP2
803;SDS011;25687;49.976;8.240;2022-12-18T00:01:23;42.77;;;22.37;;
803;SDS011;25687;49.976;8.240;2022-12-18T00:03:56;49.23;;;22.90;;
803;SDS011;25687;49.976;8.240;2022-12-18T00:06:24;53.73;;;26.87;;
803;SDS011;25687;49.976;8.240;2022-12-18T00:08:51;46.40;;;22.70;;
803;SDS011;25687;49.976;8.240;2022-12-18T00:11:17;50.93;;;22.63;;
803;SDS011;25687;49.976;8.240;2022-12-18T00:13:44;44.17;;;23.03;;
803;SDS011;25687;49.976;8.240;2022-12-18T00:16:11;42.37;;;21.20;;
803;SDS011;25687;49.976;8.240;2022-12-18T00:18:38;49.10;;;24.20;;
803;SDS011;25687;49.976;8.240;2022-12-18T00:21:05;51.37;;;23.40;;
803;SDS011;25687;49.976;8.240;2022-12-18T00:23:32;47.97;;;23.20;;
803;SDS011;25687;49.976;8.240;2022-12-18T00:26:00;50.13;;;22.83;;
803;SDS011;25687;49.976;8.240;2022-12-18T00:28:26;49.57;;;23.27;;
803;SDS011;25687;49.976;8.240;2022-12-18T00:30:59;43.30;;;22.23;;
803;SDS011;25687;49.976;8.240;2022-12-18T00:33:29;42.60;;;22.07;;
803;SDS011;25687;49.976;8.240;2022-12-18T00:35:54;44.07;;;21.03;;
803;SDS011;25687;49.976;8.240;2022-12-18T00:38:19;47.97;;;23.37;;
803;SDS011;25687;49.976;8.240;2022-12-18T00:40:45;45.83;;;23.07;;
803;SDS011;25687;49.976;8.240;2022-12-18T00:43:10;43.57;;;21.53;;
803;SDS011;25687;49.976;8.240;2022-12-18T00:45:35;42.60;;;22.87;;
803;SDS011;25687;49.976;8.240;2022-12-18T00:48:01;45.67;;;21.97;;
803;SDS011;25687;49.976;8.240;2022-12-18T00:50:26;41.60;;;21.33;;
803;SDS011;25687;49.976;8.240;2022-12-18T00:52:51;44.57;;;21.87;;
803;SDS011;25687;49.976;8.240;2022-12-18T00:55:17;39.30;;;21.73;;
803;SDS011;25687;49.976;8.240;2022-12-18T00:57:43;46.67;;;22.00;;
803;SDS011;25687;49.976;8.240;2022-12-18T01:00:10;46.77;;;23.37;;
803;SDS011;25687;49.976;8.240;2022-12-18T01:02:38;44.63;;;22.13;;
803;SDS011;25687;49.976;8.240;2022-12-18T01:05:04;43.20;;;22.60;;
803;SDS011;25687;49.976;8.240;2022-12-18T01:07:29;41.70;;;21.20;;
803;SDS011;25687;49.976;8.240;2022-12-18T01:09:55;44.30;;;23.20;;
803;SDS011;25687;49.976;8.240;2022-12-18T01:12:20;41.23;;;20.93;;
803;SDS011;25687;49.976;8.240;2022-12-18T01:14:45;43.30;;;21.43;;
803;SDS011;25687;49.976;8.240;2022-12-18T01:17:11;44.17;;;21.83;;
803;SDS011;25687;49.976;8.240;2022-12-18T01:19:36;42.87;;;21.33;;
803;SDS011;25687;49.976;8.240;2022-12-18T01:22:01;41.70;;;21.23;;
803;SDS011;25687;49.976;8.240;2022-12-18T01:24:27;42.27;;;21.20;;
803;SDS011;25687;49.976;8.240;2022-12-18T01:26:52;42.90;;;21.93;;
803;SDS011;25687;49.976;8.240;2022-12-18T01:29:17;48.30;;;23.17;;
803;SDS011;25687;49.976;8.240;2022-12-18T01:31:43;44.17;;;22.63;;
803;SDS011;25687;49.976;8.240;2022-12-18T01:34:08;45.33;;;21.47;;
803;SDS011;25687;49.976;8.240;2022-12-18T01:36:36;49.00;;;22.23;;
803;SDS011;25687;49.976;8.240;2022-12-18T01:39:08;46.77;;;21.87;;
803;SDS011;25687;49.976;8.240;2022-12-18T01:41:36;45.30;;;22.13;;
803;SDS011;25687;49.976;8.240;2022-12-18T01:47:20;39.27;;;20.13;;
803;SDS011;25687;49.976;8.240;2022-12-18T01:49:49;45.17;;;20.87;;
803;SDS011;25687;49.976;8.240;2022-12-18T01:52:15;42.50;;;22.20;;
803;SDS011;25687;49.976;8.240;2022-12-18T01:54:43;46.97;;;23.50;;
803;SDS011;25687;49.976;8.240;2022-12-18T01:57:11;42.23;;;22.90;;
803;SDS011;25687;49.976;8.240;2022-12-18T01:59:37;45.63;;;23.93;;
803;SDS011;25687;49.976;8.240;2022-12-18T02:02:05;44.30;;;21.63;;
803;SDS011;25687;49.976;8.240;2022-12-18T02:04:32;50.67;;;22.40;;
803;SDS011;25687;49.976;8.240;2022-12-18T02:09:56;43.40;;;22.60;;
803;SDS011;25687;49.976;8.240;2022-12-18T02:12:25;39.37;;;20.87;;
803;SDS011;25687;49.976;8.240;2022-12-18T02:15:00;45.03;;;21.33;;
803;SDS011;25687;49.976;8.240;2022-12-18T02:17:37;48.37;;;22.93;;
803;SDS011;25687;49.976;8.240;2022-12-18T02:25:38;50.80;;;22.97;;
803;SDS011;25687;49.976;8.240;2022-12-18T02:28:13;37.70;;;19.80;;
803;SDS011;25687;49.976;8.240;2022-12-18T02:30:41;46.57;;;23.10;;
803;SDS011;25687;49.976;8.240;2022-12-18T02:33:08;42.37;;;21.67;;
803;SDS011;25687;49.976;8.240;2022-12-18T02:35:36;43.40;;;20.67;;
803;SDS011;25687;49.976;8.240;2022-12-18T02:38:05;39.23;;;21.77;;
803;SDS011;25687;49.976;8.240;2022-12-18T02:40:31;38.57;;;20.50;;
803;SDS011;25687;49.976;8.240;2022-12-18T02:43:02;42.10;;;20.73;;
803;SDS011;25687;49.976;8.240;2022-12-18T02:45:48;37.07;;;20.00;;
803;SDS011;25687;49.976;8.240;2022-12-18T02:48:20;41.97;;;21.30;;
803;SDS011;25687;49.976;8.240;2022-12-18T02:50:59;40.87;;;19.47;;
803;SDS011;25687;49.976;8.240;2022-12-18T02:53:45;46.53;;;22.60;;
803;SDS011;25687;49.976;8.240;2022-12-18T03:01:30;39.83;;;19.63;;
803;SDS011;25687;49.976;8.240;2022-12-18T03:04:06;44.27;;;21.90;;
803;SDS011;25687;49.976;8.240;2022-12-18T03:06:43;45.93;;;20.73;;
803;SDS011;25687;49.976;8.240;2022-12-18T03:09:22;38.63;;;20.30;;
803;SDS011;25687;49.976;8.240;2022-12-18T03:11:56;35.87;;;19.93;;
803;SDS011;25687;49.976;8.240;2022-12-18T03:14:48;42.60;;;20.17;;
803;SDS011;25687;49.976;8.240;2022-12-18T03:17:19;39.93;;;20.03;;
803;SDS011;25687;49.976;8.240;2022-12-18T03:19:48;43.97;;;20.13;;
803;SDS011;25687;49.976;8.240;2022-12-18T03:22:15;42.50;;;20.57;;
803;SDS011;25687;49.976;8.240;2022-12-18T03:24:44;39.03;;;20.67;;
803;SDS011;25687;49.976;8.240;2022-12-18T03:27:11;43.37;;;19.43;;
803;SDS011;25687;49.976;8.240;2022-12-18T03:29:41;39.70;;;19.37;;
803;SDS011;25687;49.976;8.240;2022-12-18T03:32:33;37.37;;;19.63;;
803;SDS011;25687;49.976;8.240;2022-12-18T03:35:03;42.37;;;20.80;;
803;SDS011;25687;49.976;8.240;2022-12-18T03:37:31;39.20;;;20.50;;
803;SDS011;25687;49.976;8.240;2022-12-18T03:39:56;38.80;;;18.77;;
803;SDS011;25687;49.976;8.240;2022-12-18T03:42:29;37.10;;;19.13;;
803;SDS011;25687;49.976;8.240;2022-12-18T03:45:07;37.20;;;18.97;;
803;SDS011;25687;49.976;8.240;2022-12-18T03:50:13;38.37;;;19.17;;
803;SDS011;25687;49.976;8.240;2022-12-18T03:53:05;31.83;;;17.73;;
803;SDS011;25687;49.976;8.240;2022-12-18T03:55:34;35.83;;;18.20;;
803;SDS011;25687;49.976;8.240;2022-12-18T03:58:01;35.97;;;19.40;;
803;SDS011;25687;49.976;8.240;2022-12-18T04:00:28;42.13;;;19.67;;
803;SDS011;25687;49.976;8.240;2022-12-18T04:02:56;32.23;;;18.63;;
803;SDS011;25687;49.976;8.240;2022-12-18T04:05:25;37.33;;;19.67;;
803;SDS011;25687;49.976;8.240;2022-12-18T04:07:53;36.10;;;19.60;;
803;SDS011;25687;49.976;8.240;2022-12-18T04:10:19;34.70;;;18.57;;
803;SDS011;25687;49.976;8.240;2022-12-18T04:12:45;34.50;;;19.37;;
803;SDS011;25687;49.976;8.240;2022-12-18T04:15:11;32.23;;;18.30;;
803;SDS011;25687;49.976;8.240;2022-12-18T04:17:38;36.53;;;19.37;;
803;SDS011;25687;49.976;8.240;2022-12-18T04:20:07;35.00;;;18.13;;
803;SDS011;25687;49.976;8.240;2022-12-18T04:22:33;37.23;;;20.03;;
803;SDS011;25687;49.976;8.240;2022-12-18T04:24:58;36.27;;;19.83;;
803;SDS011;25687;49.976;8.240;2022-12-18T04:27:23;39.67;;;19.50;;
803;SDS011;25687;49.976;8.240;2022-12-18T04:29:49;33.20;;;17.57;;
803;SDS011;25687;49.976;8.240;2022-12-18T04:32:14;40.10;;;20.47;;
803;SDS011;25687;49.976;8.240;2022-12-18T04:34:39;37.50;;;20.07;;
803;SDS011;25687;49.976;8.240;2022-12-18T04:37:04;34.03;;;19.13;;
803;SDS011;25687;49.976;8.240;2022-12-18T04:39:33;37.33;;;20.67;;
803;SDS011;25687;49.976;8.240;2022-12-18T04:41:58;31.13;;;19.63;;
803;SDS011;25687;49.976;8.240;2022-12-18T04:44:23;33.63;;;18.50;;
803;SDS011;25687;49.976;8.240;2022-12-18T04:46:49;37.53;;;19.30;;
803;SDS011;25687;49.976;8.240;2022-12-18T04:49:14;31.43;;;17.73;;
803;SDS011;25687;49.976;8.240;2022-12-18T04:51:39;38.87;;;18.80;;
803;SDS011;25687;49.976;8.240;2022-12-18T04:54:04;35.97;;;17.97;;
803;SDS011;25687;49.976;8.240;2022-12-18T04:56:30;31.67;;;17.53;;
803;SDS011;25687;49.976;8.240;2022-12-18T04:58:56;35.63;;;18.37;;
803;SDS011;25687;49.976;8.240;2022-12-18T05:01:21;32.57;;;17.53;;
803;SDS011;25687;49.976;8.240;2022-12-18T05:03:47;33.17;;;18.43;;
803;SDS011;25687;49.976;8.240;2022-12-18T05:06:12;37.57;;;19.47;;
803;SDS011;25687;49.976;8.240;2022-12-18T05:08:37;31.10;;;16.17;;
803;SDS011;25687;49.976;8.240;2022-12-18T05:11:07;34.10;;;18.10;;
803;SDS011;25687;49.976;8.240;2022-12-18T05:13:35;34.70;;;17.97;;
803;SDS011;25687;49.976;8.240;2022-12-18T05:16:01;34.77;;;17.43;;
803;SDS011;25687;49.976;8.240;2022-12-18T05:18:27;35.13;;;17.50;;
803;SDS011;25687;49.976;8.240;2022-12-18T05:20:53;35.90;;;19.00;;
803;SDS011;25687;49.976;8.240;2022-12-18T05:23:19;33.07;;;17.93;;
803;SDS011;25687;49.976;8.240;2022-12-18T05:25:47;36.93;;;19.23;;
803;SDS011;25687;49.976;8.240;2022-12-18T05:28:16;29.43;;;18.27;;
803;SDS011;25687;49.976;8.240;2022-12-18T05:30:44;29.10;;;17.23;;
803;SDS011;25687;49.976;8.240;2022-12-18T05:33:13;32.53;;;18.13;;
803;SDS011;25687;49.976;8.240;2022-12-18T05:35:38;39.53;;;18.07;;
803;SDS011;25687;49.976;8.240;2022-12-18T05:38:03;37.30;;;18.90;;
803;SDS011;25687;49.976;8.240;2022-12-18T05:40:28;29.40;;;16.80;;
803;SDS011;25687;49.976;8.240;2022-12-18T05:42:54;32.27;;;17.33;;
803;SDS011;25687;49.976;8.240;2022-12-18T05:45:19;35.20;;;17.37;;
803;SDS011;25687;49.976;8.240;2022-12-18T05:47:45;36.57;;;18.40;;
803;SDS011;25687;49.976;8.240;2022-12-18T05:50:10;30.37;;;17.03;;
803;SDS011;25687;49.976;8.240;2022-12-18T05:52:35;29.17;;;17.87;;
803;SDS011;25687;49.976;8.240;2022-12-18T05:55:01;37.93;;;17.80;;
803;SDS011;25687;49.976;8.240;2022-12-18T05:57:26;33.00;;;18.53;;
803;SDS011;25687;49.976;8.240;2022-12-18T05:59:51;29.67;;;17.33;;
803;SDS011;25687;49.976;8.240;2022-12-18T06:02:17;32.07;;;18.77;;
803;SDS011;25687;49.976;8.240;2022-12-18T06:04:42;32.60;;;18.53;;
803;SDS011;25687;49.976;8.240;2022-12-18T06:07:07;30.83;;;17.47;;
803;SDS011;25687;49.976;8.240;2022-12-18T06:09:32;33.43;;;17.37;;
803;SDS011;25687;49.976;8.240;2022-12-18T06:11:58;29.90;;;17.70;;
803;SDS011;25687;49.976;8.240;2022-12-18T06:14:26;30.80;;;18.00;;
803;SDS011;25687;49.976;8.240;2022-12-18T06:16:52;33.00;;;18.37;;
803;SDS011;25687;49.976;8.240;2022-12-18T06:19:17;34.27;;;18.70;;
803;SDS011;25687;49.976;8.240;2022-12-18T06:21:42;32.93;;;19.50;;
803;SDS011;25687;49.976;8.240;2022-12-18T06:24:08;33.03;;;18.07;;
803;SDS011;25687;49.976;8.240;2022-12-18T06:26:33;32.70;;;17.90;;
803;SDS011;25687;49.976;8.240;2022-12-18T06:28:59;33.67;;;18.97;;
803;SDS011;25687;49.976;8.240;2022-12-18T06:31:24;30.20;;;18.73;;
803;SDS011;25687;49.976;8.240;2022-12-18T06:33:50;31.60;;;18.07;;
803;SDS011;25687;49.976;8.240;2022-12-18T06:36:16;33.97;;;19.47;;
803;SDS011;25687;49.976;8.240;2022-12-18T06:38:42;30.07;;;18.67;;
803;SDS011;25687;49.976;8.240;2022-12-18T06:43:35;29.57;;;18.40;;
803;SDS011;25687;49.976;8.240;2022-12-18T06:46:01;31.53;;;18.27;;
803;SDS011;25687;49.976;8.240;2022-12-18T06:48:27;36.03;;;19.83;;
803;SDS011;25687;49.976;8.240;2022-12-18T06:50:52;35.13;;;19.13;;
803;SDS011;25687;49.976;8.240;2022-12-18T06:53:17;36.17;;;19.03;;
803;SDS011;25687;49.976;8.240;2022-12-18T06:55:43;35.47;;;18.60;;
803;SDS011;25687;49.976;8.240;2022-12-18T06:58:08;29.97;;;17.90;;
803;SDS011;25687;49.976;8.240;2022-12-18T07:00:33;32.17;;;19.93;;
803;SDS011;25687;49.976;8.240;2022-12-18T07:02:58;34.73;;;18.77;;
803;SDS011;25687;49.976;8.240;2022-12-18T07:05:24;34.20;;;19.60;;
803;SDS011;25687;49.976;8.240;2022-12-18T07:07:49;29.10;;;18.53;;
803;SDS011;25687;49.976;8.240;2022-12-18T07:10:14;35.63;;;19.57;;
803;SDS011;25687;49.976;8.240;2022-12-18T07:12:40;31.20;;;19.53;;
803;SDS011;25687;49.976;8.240;2022-12-18T07:15:06;32.60;;;18.63;;
803;SDS011;25687;49.976;8.240;2022-12-18T07:17:32;32.27;;;18.40;;
803;SDS011;25687;49.976;8.240;2022-12-18T07:19:57;38.67;;;19.77;;
803;SDS011;25687;49.976;8.240;2022-12-18T07:22:24;35.10;;;21.10;;
803;SDS011;25687;49.976;8.240;2022-12-18T07:24:50;30.00;;;17.97;;
803;SDS011;25687;49.976;8.240;2022-12-18T07:27:16;33.70;;;19.17;;
803;SDS011;25687;49.976;8.240;2022-12-18T07:29:41;41.87;;;20.73;;
803;SDS011;25687;49.976;8.240;2022-12-18T07:32:06;35.63;;;19.27;;
803;SDS011;25687;49.976;8.240;2022-12-18T07:34:32;44.23;;;20.20;;
803;SDS011;25687;49.976;8.240;2022-12-18T07:36:57;34.77;;;18.70;;
803;SDS011;25687;49.976;8.240;2022-12-18T07:39:23;35.67;;;19.90;;
803;SDS011;25687;49.976;8.240;2022-12-18T07:41:48;41.97;;;20.37;;
803;SDS011;25687;49.976;8.240;2022-12-18T07:44:33;42.27;;;19.13;;
803;SDS011;25687;49.976;8.240;2022-12-18T07:46:58;35.17;;;19.97;;
803;SDS011;25687;49.976;8.240;2022-12-18T07:49:24;47.47;;;22.63;;
803;SDS011;25687;49.976;8.240;2022-12-18T07:51:49;38.10;;;20.37;;
803;SDS011;25687;49.976;8.240;2022-12-18T07:54:14;44.60;;;22.60;;
803;SDS011;25687;49.976;8.240;2022-12-18T07:56:40;39.00;;;19.83;;
803;SDS011;25687;49.976;8.240;2022-12-18T07:59:05;44.13;;;21.10;;
803;SDS011;25687;49.976;8.240;2022-12-18T08:01:31;42.23;;;20.57;;
803;SDS011;25687;49.976;8.240;2022-12-18T08:03:57;39.20;;;21.30;;
803;SDS011;25687;49.976;8.240;2022-12-18T08:06:22;40.17;;;22.63;;
803;SDS011;25687;49.976;8.240;2022-12-18T08:08:48;34.00;;;21.03;;
803;SDS011;25687;49.976;8.240;2022-12-18T08:11:13;44.80;;;24.03;;
803;SDS011;25687;49.976;8.240;2022-12-18T08:13:39;43.97;;;24.07;;
803;SDS011;25687;49.976;8.240;2022-12-18T08:16:05;47.47;;;25.03;;
803;SDS011;25687;49.976;8.240;2022-12-18T08:18:33;55.87;;;29.27;;
803;SDS011;25687;49.976;8.240;2022-12-18T08:21:09;45.47;;;24.87;;
803;SDS011;25687;49.976;8.240;2022-12-18T08:23:40;48.70;;;25.93;;
803;SDS011;25687;49.976;8.240;2022-12-18T08:26:05;48.67;;;25.77;;
803;SDS011;25687;49.976;8.240;2022-12-18T08:28:31;44.23;;;24.87;;
803;SDS011;25687;49.976;8.240;2022-12-18T08:30:56;40.27;;;26.27;;
803;SDS011;25687;49.976;8.240;2022-12-18T08:33:22;44.47;;;26.00;;
803;SDS011;25687;49.976;8.240;2022-12-18T08:35:47;41.90;;;23.73;;
803;SDS011;25687;49.976;8.240;2022-12-18T08:38:12;41.00;;;25.00;;
803;SDS011;25687;49.976;8.240;2022-12-18T08:40:38;43.17;;;24.30;;
803;SDS011;25687;49.976;8.240;2022-12-18T08:43:03;42.50;;;24.50;;
803;SDS011;25687;49.976;8.240;2022-12-18T08:45:47;37.33;;;22.93;;
803;SDS011;25687;49.976;8.240;2022-12-18T08:48:12;41.57;;;24.07;;
803;SDS011;25687;49.976;8.240;2022-12-18T08:50:38;40.17;;;25.60;;
803;SDS011;25687;49.976;8.240;2022-12-18T08:53:03;41.20;;;24.13;;
803;SDS011;25687;49.976;8.240;2022-12-18T08:55:28;40.80;;;26.47;;
803;SDS011;25687;49.976;8.240;2022-12-18T08:57:54;44.83;;;24.97;;
803;SDS011;25687;49.976;8.240;2022-12-18T09:00:19;45.33;;;26.17;;
803;SDS011;25687;49.976;8.240;2022-12-18T09:02:45;76.47;;;35.43;;
803;SDS011;25687;49.976;8.240;2022-12-18T09:05:10;47.97;;;25.80;;
803;SDS011;25687;49.976;8.240;2022-12-18T09:07:35;34.97;;;22.73;;
803;SDS011;25687;49.976;8.240;2022-12-18T09:10:01;35.73;;;22.50;;
803;SDS011;25687;49.976;8.240;2022-12-18T09:12:26;38.67;;;23.53;;
803;SDS011;25687;49.976;8.240;2022-12-18T09:14:52;36.77;;;22.80;;
803;SDS011;25687;49.976;8.240;2022-12-18T09:17:17;31.13;;;20.47;;
803;SDS011;25687;49.976;8.240;2022-12-18T09:19:42;34.10;;;20.97;;
803;SDS011;25687;49.976;8.240;2022-12-18T09:22:08;34.63;;;22.10;;
803;SDS011;25687;49.976;8.240;2022-12-18T09:24:34;37.37;;;21.33;;
803;SDS011;25687;49.976;8.240;2022-12-18T09:27:00;31.90;;;20.87;;
803;SDS011;25687;49.976;8.240;2022-12-18T09:29:25;39.80;;;21.47;;
803;SDS011;25687;49.976;8.240;2022-12-18T09:31:50;35.03;;;20.93;;
803;SDS011;25687;49.976;8.240;2022-12-18T09:34:16;31.67;;;21.33;;
803;SDS011;25687;49.976;8.240;2022-12-18T09:36:41;33.43;;;21.60;;
803;SDS011;25687;49.976;8.240;2022-12-18T09:39:10;31.47;;;20.50;;
803;SDS011;25687;49.976;8.240;2022-12-18T09:41:39;32.87;;;20.60;;
803;SDS011;25687;49.976;8.240;2022-12-18T09:46:53;28.87;;;21.13;;
803;SDS011;25687;49.976;8.240;2022-12-18T09:49:30;29.63;;;20.33;;
803;SDS011;25687;49.976;8.240;2022-12-18T09:52:01;30.07;;;20.60;;
803;SDS011;25687;49.976;8.240;2022-12-18T09:54:35;33.97;;;20.67;;
803;SDS011;25687;49.976;8.240;2022-12-18T09:57:06;30.83;;;19.93;;
803;SDS011;25687;49.976;8.240;2022-12-18T09:59:38;34.70;;;22.20;;
803;SDS011;25687;49.976;8.240;2022-12-18T10:04:43;33.07;;;19.73;;
803;SDS011;25687;49.976;8.240;2022-12-18T10:07:14;32.60;;;21.43;;
803;SDS011;25687;49.976;8.240;2022-12-18T10:09:53;38.07;;;21.93;;
803;SDS011;25687;49.976;8.240;2022-12-18T10:15:21;40.33;;;22.83;;
803;SDS011;25687;49.976;8.240;2022-12-18T10:17:58;37.83;;;21.97;;
803;SDS011;25687;49.976;8.240;2022-12-18T10:20:45;39.57;;;22.83;;
803;SDS011;25687;49.976;8.240;2022-12-18T10:26:07;40.77;;;21.77;;
803;SDS011;25687;49.976;8.240;2022-12-18T10:28:35;43.77;;;23.30;;
803;SDS011;25687;49.976;8.240;2022-12-18T10:31:04;40.60;;;23.37;;
803;SDS011;25687;49.976;8.240;2022-12-18T10:33:50;42.57;;;22.80;;
803;SDS011;25687;49.976;8.240;2022-12-18T10:36:18;37.87;;;23.03;;
803;SDS011;25687;49.976;8.240;2022-12-18T10:38:43;37.70;;;23.27;;
803;SDS011;25687;49.976;8.240;2022-12-18T10:43:54;35.23;;;19.73;;
803;SDS011;25687;49.976;8.240;2022-12-18T10:46:35;37.37;;;22.43;;
803;SDS011;25687;49.976;8.240;2022-12-18T10:49:00;42.37;;;24.30;;
803;SDS011;25687;49.976;8.240;2022-12-18T10:53:55;48.00;;;25.63;;
803;SDS011;25687;49.976;8.240;2022-12-18T10:56:33;39.67;;;25.07;;
803;SDS011;25687;49.976;8.240;2022-12-18T10:59:06;42.53;;;24.17;;
803;SDS011;25687;49.976;8.240;2022-12-18T11:01:45;38.83;;;23.00;;
803;SDS011;25687;49.976;8.240;2022-12-18T11:04:22;38.83;;;23.43;;
803;SDS011;25687;49.976;8.240;2022-12-18T11:06:57;35.53;;;22.57;;
803;SDS011;25687;49.976;8.240;2022-12-18T11:09:26;46.07;;;24.63;;
803;SDS011;25687;49.976;8.240;2022-12-18T11:11:58;37.07;;;24.37;;
803;SDS011;25687;49.976;8.240;2022-12-18T11:14:31;36.93;;;23.53;;
803;SDS011;25687;49.976;8.240;2022-12-18T11:16:59;36.33;;;23.90;;
803;SDS011;25687;49.976;8.240;2022-12-18T11:19:35;40.70;;;25.87;;
803;SDS011;25687;49.976;8.240;2022-12-18T11:22:47;39.77;;;25.93;;
803;SDS011;25687;49.976;8.240;2022-12-18T11:24:56;35.47;;;24.20;;
803;SDS011;25687;49.976;8.240;2022-12-18T11:27:35;33.93;;;24.17;;
803;SDS011;25687;49.976;8.240;2022-12-18T11:30:10;39.07;;;24.70;;
803;SDS011;25687;49.976;8.240;2022-12-18T11:32:55;39.00;;;25.03;;
803;SDS011;25687;49.976;8.240;2022-12-18T11:35:59;38.80;;;23.27;;
803;SDS011;25687;49.976;8.240;2022-12-18T11:38:39;38.50;;;23.87;;
803;SDS011;25687;49.976;8.240;2022-12-18T11:44:31;40.07;;;24.57;;
803;SDS011;25687;49.976;8.240;2022-12-18T11:47:19;39.97;;;25.67;;
803;SDS011;25687;49.976;8.240;2022-12-18T11:50:02;43.07;;;25.97;;
803;SDS011;25687;49.976;8.240;2022-12-18T11:52:37;35.83;;;25.60;;
803;SDS011;25687;49.976;8.240;2022-12-18T11:55:09;40.63;;;25.93;;
803;SDS011;25687;49.976;8.240;2022-12-18T11:57:46;41.93;;;27.23;;
803;SDS011;25687;49.976;8.240;2022-12-18T12:00:20;38.13;;;25.07;;
803;SDS011;25687;49.976;8.240;2022-12-18T12:03:09;37.07;;;25.17;;
803;SDS011;25687;49.976;8.240;2022-12-18T12:09:05;41.97;;;26.23;;
803;SDS011;25687;49.976;8.240;2022-12-18T12:23:19;36.50;;;24.27;;
803;SDS011;25687;49.976;8.240;2022-12-18T12:28:44;39.93;;;26.70;;
803;SDS011;25687;49.976;8.240;2022-12-18T12:39:35;43.87;;;28.17;;
803;SDS011;25687;49.976;8.240;2022-12-18T12:42:04;42.90;;;27.17;;
803;SDS011;25687;49.976;8.240;2022-12-18T12:44:55;47.67;;;28.40;;
803;SDS011;25687;49.976;8.240;2022-12-18T12:47:25;39.80;;;26.03;;
803;SDS011;25687;49.976;8.240;2022-12-18T12:49:55;41.47;;;26.73;;
803;SDS011;25687;49.976;8.240;2022-12-18T12:52:42;40.90;;;24.93;;
803;SDS011;25687;49.976;8.240;2022-12-18T12:58:10;43.70;;;25.07;;
803;SDS011;25687;49.976;8.240;2022-12-18T13:00:46;45.87;;;26.90;;
803;SDS011;25687;49.976;8.240;2022-12-18T13:08:56;45.43;;;28.03;;
803;SDS011;25687;49.976;8.240;2022-12-18T13:11:35;49.20;;;29.63;;
803;SDS011;25687;49.976;8.240;2022-12-18T13:14:31;48.87;;;28.07;;
803;SDS011;25687;49.976;8.240;2022-12-18T13:19:50;50.70;;;30.23;;
803;SDS011;25687;49.976;8.240;2022-12-18T13:22:21;47.63;;;27.30;;
803;SDS011;25687;49.976;8.240;2022-12-18T13:24:48;48.00;;;27.00;;
803;SDS011;25687;49.976;8.240;2022-12-18T13:30:15;53.27;;;29.33;;
803;SDS011;25687;49.976;8.240;2022-12-18T13:35:39;47.13;;;26.23;;
803;SDS011;25687;49.976;8.240;2022-12-18T13:40:59;46.83;;;28.00;;
803;SDS011;25687;49.976;8.240;2022-12-18T13:43:49;51.33;;;29.13;;
803;SDS011;25687;49.976;8.240;2022-12-18T13:48:41;50.87;;;28.07;;
803;SDS011;25687;49.976;8.240;2022-12-18T13:51:16;41.53;;;24.43;;
803;SDS011;25687;49.976;8.240;2022-12-18T13:53:46;54.37;;;28.47;;
803;SDS011;25687;49.976;8.240;2022-12-18T13:56:15;51.20;;;27.47;;
803;SDS011;25687;49.976;8.240;2022-12-18T13:58:42;48.20;;;26.23;;
803;SDS011;25687;49.976;8.240;2022-12-18T14:01:40;52.73;;;28.17;;
803;SDS011;25687;49.976;8.240;2022-12-18T14:04:12;48.70;;;27.73;;
803;SDS011;25687;49.976;8.240;2022-12-18T14:09:36;49.83;;;27.80;;
803;SDS011;25687;49.976;8.240;2022-12-18T14:12:06;48.70;;;27.10;;
803;SDS011;25687;49.976;8.240;2022-12-18T14:14:58;53.20;;;27.87;;
803;SDS011;25687;49.976;8.240;2022-12-18T14:17:23;49.83;;;25.73;;
803;SDS011;25687;49.976;8.240;2022-12-18T14:19:49;51.70;;;26.37;;
803;SDS011;25687;49.976;8.240;2022-12-18T14:22:20;51.20;;;26.93;;
803;SDS011;25687;49.976;8.240;2022-12-18T14:27:37;53.20;;;29.90;;
803;SDS011;25687;49.976;8.240;2022-12-18T14:35:34;59.50;;;29.10;;
803;SDS011;25687;49.976;8.240;2022-12-18T14:38:19;53.50;;;27.63;;
803;SDS011;25687;49.976;8.240;2022-12-18T14:40:51;55.13;;;28.37;;
803;SDS011;25687;49.976;8.240;2022-12-18T14:43:18;49.57;;;26.37;;
803;SDS011;25687;49.976;8.240;2022-12-18T14:45:44;47.90;;;25.73;;
803;SDS011;25687;49.976;8.240;2022-12-18T14:50:36;54.17;;;28.50;;
803;SDS011;25687;49.976;8.240;2022-12-18T14:53:01;53.53;;;24.90;;
803;SDS011;25687;49.976;8.240;2022-12-18T14:55:28;48.47;;;27.30;;
803;SDS011;25687;49.976;8.240;2022-12-18T14:57:53;51.50;;;27.47;;
803;SDS011;25687;49.976;8.240;2022-12-18T15:00:22;48.47;;;27.27;;
803;SDS011;25687;49.976;8.240;2022-12-18T15:02:53;53.37;;;27.33;;
803;SDS011;25687;49.976;8.240;2022-12-18T15:05:24;46.00;;;25.30;;
803;SDS011;25687;49.976;8.240;2022-12-18T15:07:50;46.03;;;24.97;;
803;SDS011;25687;49.976;8.240;2022-12-18T15:18:10;55.90;;;27.33;;
803;SDS011;25687;49.976;8.240;2022-12-18T15:23:14;47.97;;;27.27;;
803;SDS011;25687;49.976;8.240;2022-12-18T15:25:42;52.63;;;28.07;;
803;SDS011;25687;49.976;8.240;2022-12-18T15:28:15;55.57;;;27.17;;
803;SDS011;25687;49.976;8.240;2022-12-18T15:33:34;54.23;;;26.47;;
803;SDS011;25687;49.976;8.240;2022-12-18T15:36:08;49.23;;;26.80;;
803;SDS011;25687;49.976;8.240;2022-12-18T15:38:34;54.17;;;27.33;;
803;SDS011;25687;49.976;8.240;2022-12-18T15:41:00;51.53;;;28.13;;
803;SDS011;25687;49.976;8.240;2022-12-18T15:43:26;51.27;;;27.23;;
803;SDS011;25687;49.976;8.240;2022-12-18T15:46:02;53.77;;;27.37;;
803;SDS011;25687;49.976;8.240;2022-12-18T15:48:29;50.10;;;26.60;;
803;SDS011;25687;49.976;8.240;2022-12-18T15:50:55;50.80;;;28.53;;
803;SDS011;25687;49.976;8.240;2022-12-18T15:53:22;57.90;;;31.13;;
803;SDS011;25687;49.976;8.240;2022-12-18T15:55:50;84.80;;;40.87;;
803;SDS011;25687;49.976;8.240;2022-12-18T15:58:34;69.33;;;35.87;;
803;SDS011;25687;49.976;8.240;2022-12-18T16:01:00;63.47;;;31.90;;
803;SDS011;25687;49.976;8.240;2022-12-18T16:03:26;64.27;;;33.93;;
803;SDS011;25687;49.976;8.240;2022-12-18T16:05:52;66.50;;;35.37;;
803;SDS011;25687;49.976;8.240;2022-12-18T16:08:17;63.13;;;35.00;;
803;SDS011;25687;49.976;8.240;2022-12-18T16:10:43;59.30;;;30.37;;
803;SDS011;25687;49.976;8.240;2022-12-18T16:13:11;57.60;;;31.93;;
803;SDS011;25687;49.976;8.240;2022-12-18T16:15:39;59.37;;;30.13;;
803;SDS011;25687;49.976;8.240;2022-12-18T16:18:04;54.23;;;29.57;;
803;SDS011;25687;49.976;8.240;2022-12-18T16:20:30;49.83;;;28.83;;
803;SDS011;25687;49.976;8.240;2022-12-18T16:22:55;56.17;;;30.40;;
803;SDS011;25687;49.976;8.240;2022-12-18T16:25:21;51.80;;;28.07;;
803;SDS011;25687;49.976;8.240;2022-12-18T16:27:49;51.17;;;27.70;;
803;SDS011;25687;49.976;8.240;2022-12-18T16:30:15;52.57;;;27.00;;
803;SDS011;25687;49.976;8.240;2022-12-18T16:32:43;51.43;;;28.40;;
803;SDS011;25687;49.976;8.240;2022-12-18T16:35:09;49.23;;;26.53;;
803;SDS011;25687;49.976;8.240;2022-12-18T16:37:36;51.07;;;27.50;;
803;SDS011;25687;49.976;8.240;2022-12-18T16:40:02;53.70;;;28.67;;
803;SDS011;25687;49.976;8.240;2022-12-18T16:42:28;54.10;;;29.73;;
803;SDS011;25687;49.976;8.240;2022-12-18T16:44:53;56.57;;;30.30;;
803;SDS011;25687;49.976;8.240;2022-12-18T16:47:18;59.30;;;31.47;;
803;SDS011;25687;49.976;8.240;2022-12-18T16:49:44;48.40;;;29.03;;
803;SDS011;25687;49.976;8.240;2022-12-18T16:52:11;54.33;;;28.60;;
803;SDS011;25687;49.976;8.240;2022-12-18T16:54:37;53.70;;;30.57;;
803;SDS011;25687;49.976;8.240;2022-12-18T16:57:02;59.20;;;32.33;;